sensor_id;sensor_type;location;lat;lon;timestamp;P1;durP1;ratioP1;P2;durP2;ratioP2
16731;SDS011;8484;50.904;9.192;2024-03-08T00:02:34;16.77;;;13.50;;
16731;SDS011;8484;50.904;9.192;2024-03-08T00:05:01;21.67;;;14.33;;
16731;SDS011;8484;50.904;9.192;2024-03-08T00:07:28;16.67;;;12.70;;
16731;SDS011;8484;50.904;9.192;2024-03-08T00:09:57;19.97;;;14.60;;
16731;SDS011;8484;50.904;9.192;2024-03-08T00:12:24;17.87;;;13.23;;
16731;SDS011;8484;50.904;9.192;2024-03-08T00:14:51;18.60;;;14.27;;
16731;SDS011;8484;50.904;9.192;2024-03-08T00:17:19;21.07;;;14.60;;
16731;SDS011;8484;50.904;9.192;2024-03-08T00:19:47;17.70;;;13.60;;
16731;SDS011;8484;50.904;9.192;2024-03-08T00:22:14;16.33;;;13.63;;
16731;SDS011;8484;50.904;9.192;2024-03-08T00:24:42;19.77;;;13.10;;
16731;SDS011;8484;50.904;9.192;2024-03-08T00:27:10;16.87;;;13.73;;
16731;SDS011;8484;50.904;9.192;2024-03-08T00:29:37;16.63;;;13.13;;
16731;SDS011;8484;50.904;9.192;2024-03-08T00:32:05;17.37;;;13.03;;
16731;SDS011;8484;50.904;9.192;2024-03-08T00:34:34;20.47;;;14.07;;
16731;SDS011;8484;50.904;9.192;2024-03-08T00:37:02;17.27;;;13.40;;
16731;SDS011;8484;50.904;9.192;2024-03-08T00:39:29;17.87;;;13.17;;
16731;SDS011;8484;50.904;9.192;2024-03-08T00:41:56;17.80;;;13.77;;
16731;SDS011;8484;50.904;9.192;2024-03-08T00:44:24;18.03;;;13.77;;
16731;SDS011;8484;50.904;9.192;2024-03-08T00:46:51;17.87;;;13.83;;
16731;SDS011;8484;50.904;9.192;2024-03-08T00:49:18;17.23;;;12.90;;
16731;SDS011;8484;50.904;9.192;2024-03-08T00:51:45;16.37;;;13.40;;
16731;SDS011;8484;50.904;9.192;2024-03-08T00:54:12;17.50;;;13.87;;
16731;SDS011;8484;50.904;9.192;2024-03-08T00:56:39;20.53;;;14.03;;
16731;SDS011;8484;50.904;9.192;2024-03-08T00:59:06;18.83;;;14.00;;
16731;SDS011;8484;50.904;9.192;2024-03-08T01:01:35;18.57;;;14.37;;
16731;SDS011;8484;50.904;9.192;2024-03-08T01:04:04;19.77;;;14.10;;
16731;SDS011;8484;50.904;9.192;2024-03-08T01:06:34;17.30;;;13.97;;
16731;SDS011;8484;50.904;9.192;2024-03-08T01:09:03;18.77;;;13.80;;
16731;SDS011;8484;50.904;9.192;2024-03-08T01:11:32;20.10;;;13.73;;
16731;SDS011;8484;50.904;9.192;2024-03-08T01:13:59;19.27;;;13.73;;
16731;SDS011;8484;50.904;9.192;2024-03-08T01:16:26;18.33;;;14.03;;
16731;SDS011;8484;50.904;9.192;2024-03-08T01:18:54;18.00;;;13.50;;
16731;SDS011;8484;50.904;9.192;2024-03-08T01:21:21;18.27;;;13.63;;
16731;SDS011;8484;50.904;9.192;2024-03-08T01:23:48;19.63;;;13.50;;
16731;SDS011;8484;50.904;9.192;2024-03-08T01:26:15;21.50;;;15.27;;
16731;SDS011;8484;50.904;9.192;2024-03-08T01:28:42;18.03;;;14.23;;
16731;SDS011;8484;50.904;9.192;2024-03-08T01:31:09;19.17;;;14.50;;
16731;SDS011;8484;50.904;9.192;2024-03-08T01:33:36;20.60;;;14.10;;
16731;SDS011;8484;50.904;9.192;2024-03-08T01:36:04;20.77;;;14.93;;
16731;SDS011;8484;50.904;9.192;2024-03-08T01:38:32;22.60;;;14.00;;
16731;SDS011;8484;50.904;9.192;2024-03-08T01:40:59;20.40;;;13.27;;
16731;SDS011;8484;50.904;9.192;2024-03-08T01:43:26;18.87;;;13.70;;
16731;SDS011;8484;50.904;9.192;2024-03-08T01:45:55;19.43;;;13.83;;
16731;SDS011;8484;50.904;9.192;2024-03-08T01:48:23;17.40;;;14.23;;
16731;SDS011;8484;50.904;9.192;2024-03-08T01:50:51;19.40;;;14.77;;
16731;SDS011;8484;50.904;9.192;2024-03-08T01:53:21;18.67;;;14.20;;
16731;SDS011;8484;50.904;9.192;2024-03-08T01:55:49;20.07;;;14.43;;
16731;SDS011;8484;50.904;9.192;2024-03-08T01:58:18;18.20;;;14.43;;
16731;SDS011;8484;50.904;9.192;2024-03-08T02:00:47;19.73;;;14.90;;
16731;SDS011;8484;50.904;9.192;2024-03-08T02:03:15;19.30;;;14.47;;
16731;SDS011;8484;50.904;9.192;2024-03-08T02:05:42;19.37;;;14.67;;
16731;SDS011;8484;50.904;9.192;2024-03-08T02:08:09;19.93;;;14.93;;
16731;SDS011;8484;50.904;9.192;2024-03-08T02:10:40;19.60;;;14.57;;
16731;SDS011;8484;50.904;9.192;2024-03-08T02:13:07;17.83;;;14.20;;
16731;SDS011;8484;50.904;9.192;2024-03-08T02:18:27;19.73;;;14.50;;
16731;SDS011;8484;50.904;9.192;2024-03-08T02:20:56;18.13;;;13.73;;
16731;SDS011;8484;50.904;9.192;2024-03-08T02:23:23;19.97;;;14.97;;
16731;SDS011;8484;50.904;9.192;2024-03-08T02:25:51;20.20;;;14.53;;
16731;SDS011;8484;50.904;9.192;2024-03-08T02:28:19;18.83;;;14.00;;
16731;SDS011;8484;50.904;9.192;2024-03-08T02:30:47;21.53;;;14.83;;
16731;SDS011;8484;50.904;9.192;2024-03-08T02:33:14;20.50;;;15.43;;
16731;SDS011;8484;50.904;9.192;2024-03-08T02:35:43;21.80;;;15.30;;
16731;SDS011;8484;50.904;9.192;2024-03-08T02:38:12;20.93;;;16.27;;
16731;SDS011;8484;50.904;9.192;2024-03-08T02:40:41;21.67;;;14.73;;
16731;SDS011;8484;50.904;9.192;2024-03-08T02:43:08;20.03;;;14.57;;
16731;SDS011;8484;50.904;9.192;2024-03-08T02:45:35;21.07;;;14.60;;
16731;SDS011;8484;50.904;9.192;2024-03-08T02:48:02;22.60;;;15.93;;
16731;SDS011;8484;50.904;9.192;2024-03-08T02:50:29;19.93;;;14.93;;
16731;SDS011;8484;50.904;9.192;2024-03-08T02:52:56;21.97;;;15.67;;
16731;SDS011;8484;50.904;9.192;2024-03-08T02:55:24;19.93;;;14.73;;
16731;SDS011;8484;50.904;9.192;2024-03-08T02:57:51;22.43;;;15.33;;
16731;SDS011;8484;50.904;9.192;2024-03-08T03:00:19;23.00;;;15.03;;
16731;SDS011;8484;50.904;9.192;2024-03-08T03:02:48;20.03;;;15.30;;
16731;SDS011;8484;50.904;9.192;2024-03-08T03:05:17;20.40;;;15.00;;
16731;SDS011;8484;50.904;9.192;2024-03-08T03:07:45;22.53;;;16.00;;
16731;SDS011;8484;50.904;9.192;2024-03-08T03:10:11;23.43;;;15.53;;
16731;SDS011;8484;50.904;9.192;2024-03-08T03:12:43;23.00;;;15.13;;
16731;SDS011;8484;50.904;9.192;2024-03-08T03:15:10;21.77;;;16.40;;
16731;SDS011;8484;50.904;9.192;2024-03-08T03:17:38;20.23;;;15.40;;
16731;SDS011;8484;50.904;9.192;2024-03-08T03:20:06;21.43;;;15.70;;
16731;SDS011;8484;50.904;9.192;2024-03-08T03:22:38;20.90;;;15.50;;
16731;SDS011;8484;50.904;9.192;2024-03-08T03:25:06;22.20;;;15.87;;
16731;SDS011;8484;50.904;9.192;2024-03-08T03:27:34;23.93;;;16.07;;
16731;SDS011;8484;50.904;9.192;2024-03-08T03:30:03;22.67;;;15.47;;
16731;SDS011;8484;50.904;9.192;2024-03-08T03:33:10;20.50;;;15.83;;
16731;SDS011;8484;50.904;9.192;2024-03-08T03:35:37;20.53;;;14.93;;
16731;SDS011;8484;50.904;9.192;2024-03-08T03:38:05;22.27;;;15.80;;
16731;SDS011;8484;50.904;9.192;2024-03-08T03:40:32;22.53;;;15.90;;
16731;SDS011;8484;50.904;9.192;2024-03-08T03:43:00;21.07;;;15.33;;
16731;SDS011;8484;50.904;9.192;2024-03-08T03:45:27;24.17;;;15.67;;
16731;SDS011;8484;50.904;9.192;2024-03-08T03:47:54;23.57;;;16.20;;
16731;SDS011;8484;50.904;9.192;2024-03-08T03:50:22;25.47;;;15.23;;
16731;SDS011;8484;50.904;9.192;2024-03-08T03:52:49;21.57;;;15.60;;
16731;SDS011;8484;50.904;9.192;2024-03-08T03:55:17;20.60;;;14.93;;
16731;SDS011;8484;50.904;9.192;2024-03-08T03:57:44;20.27;;;14.83;;
16731;SDS011;8484;50.904;9.192;2024-03-08T04:00:12;21.93;;;15.70;;
16731;SDS011;8484;50.904;9.192;2024-03-08T04:02:39;22.27;;;15.80;;
16731;SDS011;8484;50.904;9.192;2024-03-08T04:05:07;22.43;;;15.77;;
16731;SDS011;8484;50.904;9.192;2024-03-08T04:07:36;20.47;;;15.03;;
16731;SDS011;8484;50.904;9.192;2024-03-08T04:10:04;20.43;;;15.33;;
16731;SDS011;8484;50.904;9.192;2024-03-08T04:12:32;18.07;;;14.67;;
16731;SDS011;8484;50.904;9.192;2024-03-08T04:14:59;22.90;;;15.47;;
16731;SDS011;8484;50.904;9.192;2024-03-08T04:17:26;22.43;;;15.77;;
16731;SDS011;8484;50.904;9.192;2024-03-08T04:19:53;22.00;;;16.13;;
16731;SDS011;8484;50.904;9.192;2024-03-08T04:22:20;19.93;;;15.47;;
16731;SDS011;8484;50.904;9.192;2024-03-08T04:24:49;26.57;;;15.63;;
16731;SDS011;8484;50.904;9.192;2024-03-08T04:27:16;22.40;;;16.37;;
16731;SDS011;8484;50.904;9.192;2024-03-08T04:29:42;24.77;;;16.43;;
16731;SDS011;8484;50.904;9.192;2024-03-08T04:32:09;23.67;;;15.57;;
16731;SDS011;8484;50.904;9.192;2024-03-08T04:34:38;23.87;;;15.53;;
16731;SDS011;8484;50.904;9.192;2024-03-08T04:37:05;23.73;;;15.90;;
16731;SDS011;8484;50.904;9.192;2024-03-08T04:39:35;22.63;;;16.27;;
16731;SDS011;8484;50.904;9.192;2024-03-08T04:42:04;20.87;;;15.50;;
16731;SDS011;8484;50.904;9.192;2024-03-08T04:44:35;21.33;;;14.93;;
16731;SDS011;8484;50.904;9.192;2024-03-08T04:47:02;21.63;;;15.63;;
16731;SDS011;8484;50.904;9.192;2024-03-08T04:49:31;22.07;;;15.77;;
16731;SDS011;8484;50.904;9.192;2024-03-08T04:52:00;22.00;;;15.93;;
16731;SDS011;8484;50.904;9.192;2024-03-08T04:54:27;21.90;;;16.13;;
16731;SDS011;8484;50.904;9.192;2024-03-08T04:56:54;23.27;;;15.70;;
16731;SDS011;8484;50.904;9.192;2024-03-08T04:59:22;20.47;;;15.47;;
16731;SDS011;8484;50.904;9.192;2024-03-08T05:01:50;23.83;;;17.10;;
16731;SDS011;8484;50.904;9.192;2024-03-08T05:04:16;24.70;;;15.37;;
16731;SDS011;8484;50.904;9.192;2024-03-08T05:06:43;22.40;;;16.03;;
16731;SDS011;8484;50.904;9.192;2024-03-08T05:09:10;22.07;;;16.20;;
16731;SDS011;8484;50.904;9.192;2024-03-08T05:11:41;23.97;;;16.37;;
16731;SDS011;8484;50.904;9.192;2024-03-08T05:14:08;24.60;;;16.47;;
16731;SDS011;8484;50.904;9.192;2024-03-08T05:16:36;23.60;;;16.60;;
16731;SDS011;8484;50.904;9.192;2024-03-08T05:19:03;22.17;;;16.13;;
16731;SDS011;8484;50.904;9.192;2024-03-08T05:21:29;22.77;;;15.20;;
16731;SDS011;8484;50.904;9.192;2024-03-08T05:23:56;25.77;;;17.97;;
16731;SDS011;8484;50.904;9.192;2024-03-08T05:26:23;19.90;;;15.60;;
16731;SDS011;8484;50.904;9.192;2024-03-08T05:28:50;26.00;;;16.03;;
16731;SDS011;8484;50.904;9.192;2024-03-08T05:31:20;21.60;;;16.10;;
16731;SDS011;8484;50.904;9.192;2024-03-08T05:33:49;21.83;;;15.97;;
16731;SDS011;8484;50.904;9.192;2024-03-08T05:36:16;21.87;;;15.97;;
16731;SDS011;8484;50.904;9.192;2024-03-08T05:38:43;22.23;;;16.57;;
16731;SDS011;8484;50.904;9.192;2024-03-08T05:41:10;26.57;;;15.67;;
16731;SDS011;8484;50.904;9.192;2024-03-08T05:43:37;21.63;;;15.57;;
16731;SDS011;8484;50.904;9.192;2024-03-08T05:46:06;27.37;;;17.50;;
16731;SDS011;8484;50.904;9.192;2024-03-08T05:48:33;24.00;;;16.27;;
16731;SDS011;8484;50.904;9.192;2024-03-08T05:51:01;29.00;;;22.23;;
16731;SDS011;8484;50.904;9.192;2024-03-08T05:53:28;23.37;;;18.67;;
16731;SDS011;8484;50.904;9.192;2024-03-08T05:55:56;25.67;;;18.70;;
16731;SDS011;8484;50.904;9.192;2024-03-08T05:58:23;29.37;;;19.53;;
16731;SDS011;8484;50.904;9.192;2024-03-08T06:00:50;23.37;;;16.97;;
16731;SDS011;8484;50.904;9.192;2024-03-08T06:03:17;26.17;;;17.50;;
16731;SDS011;8484;50.904;9.192;2024-03-08T06:05:46;29.00;;;18.57;;
16731;SDS011;8484;50.904;9.192;2024-03-08T06:08:15;24.57;;;17.57;;
16731;SDS011;8484;50.904;9.192;2024-03-08T06:10:44;24.10;;;17.63;;
16731;SDS011;8484;50.904;9.192;2024-03-08T06:13:11;24.57;;;17.50;;
16731;SDS011;8484;50.904;9.192;2024-03-08T06:15:38;22.80;;;17.67;;
16731;SDS011;8484;50.904;9.192;2024-03-08T06:18:05;25.50;;;16.73;;
16731;SDS011;8484;50.904;9.192;2024-03-08T06:20:35;22.93;;;16.80;;
16731;SDS011;8484;50.904;9.192;2024-03-08T06:23:02;23.53;;;16.73;;
16731;SDS011;8484;50.904;9.192;2024-03-08T06:25:31;22.90;;;15.27;;
16731;SDS011;8484;50.904;9.192;2024-03-08T06:27:57;22.87;;;15.97;;
16731;SDS011;8484;50.904;9.192;2024-03-08T06:30:24;22.83;;;15.97;;
16731;SDS011;8484;50.904;9.192;2024-03-08T06:32:51;22.00;;;14.97;;
16731;SDS011;8484;50.904;9.192;2024-03-08T06:35:18;19.10;;;14.97;;
16731;SDS011;8484;50.904;9.192;2024-03-08T06:37:45;21.20;;;15.07;;
16731;SDS011;8484;50.904;9.192;2024-03-08T06:40:12;21.33;;;14.67;;
16731;SDS011;8484;50.904;9.192;2024-03-08T06:42:41;19.33;;;15.13;;
16731;SDS011;8484;50.904;9.192;2024-03-08T06:45:08;20.67;;;14.80;;
16731;SDS011;8484;50.904;9.192;2024-03-08T06:47:35;21.20;;;14.50;;
16731;SDS011;8484;50.904;9.192;2024-03-08T06:50:02;19.43;;;15.00;;
16731;SDS011;8484;50.904;9.192;2024-03-08T06:52:30;17.23;;;13.37;;
16731;SDS011;8484;50.904;9.192;2024-03-08T06:54:58;17.33;;;14.20;;
16731;SDS011;8484;50.904;9.192;2024-03-08T06:57:26;18.77;;;14.03;;
16731;SDS011;8484;50.904;9.192;2024-03-08T06:59:56;18.60;;;14.13;;
16731;SDS011;8484;50.904;9.192;2024-03-08T07:02:23;18.60;;;13.20;;
16731;SDS011;8484;50.904;9.192;2024-03-08T07:04:50;15.27;;;12.70;;
16731;SDS011;8484;50.904;9.192;2024-03-08T07:07:18;17.87;;;13.50;;
16731;SDS011;8484;50.904;9.192;2024-03-08T07:09:46;15.20;;;12.67;;
16731;SDS011;8484;50.904;9.192;2024-03-08T07:12:14;17.00;;;13.13;;
16731;SDS011;8484;50.904;9.192;2024-03-08T07:14:42;14.90;;;12.07;;
16731;SDS011;8484;50.904;9.192;2024-03-08T07:17:11;15.70;;;12.47;;
16731;SDS011;8484;50.904;9.192;2024-03-08T07:19:38;18.43;;;12.60;;
16731;SDS011;8484;50.904;9.192;2024-03-08T07:22:05;17.27;;;12.57;;
16731;SDS011;8484;50.904;9.192;2024-03-08T07:24:34;16.47;;;12.77;;
16731;SDS011;8484;50.904;9.192;2024-03-08T07:27:21;15.30;;;12.47;;
16731;SDS011;8484;50.904;9.192;2024-03-08T07:29:48;15.10;;;11.83;;
16731;SDS011;8484;50.904;9.192;2024-03-08T07:32:16;17.33;;;13.53;;
16731;SDS011;8484;50.904;9.192;2024-03-08T07:34:46;15.77;;;12.30;;
16731;SDS011;8484;50.904;9.192;2024-03-08T07:37:15;14.93;;;12.30;;
16731;SDS011;8484;50.904;9.192;2024-03-08T07:39:42;16.43;;;12.47;;
16731;SDS011;8484;50.904;9.192;2024-03-08T07:42:09;14.47;;;11.77;;
16731;SDS011;8484;50.904;9.192;2024-03-08T07:44:37;13.80;;;11.70;;
16731;SDS011;8484;50.904;9.192;2024-03-08T07:47:04;15.97;;;12.33;;
16731;SDS011;8484;50.904;9.192;2024-03-08T07:49:35;13.50;;;11.63;;
16731;SDS011;8484;50.904;9.192;2024-03-08T07:52:03;14.00;;;11.93;;
16731;SDS011;8484;50.904;9.192;2024-03-08T07:54:32;15.43;;;11.87;;
16731;SDS011;8484;50.904;9.192;2024-03-08T07:56:59;16.80;;;12.37;;
16731;SDS011;8484;50.904;9.192;2024-03-08T07:59:27;13.30;;;11.83;;
16731;SDS011;8484;50.904;9.192;2024-03-08T08:01:54;13.97;;;12.33;;
16731;SDS011;8484;50.904;9.192;2024-03-08T08:04:22;13.63;;;11.63;;
16731;SDS011;8484;50.904;9.192;2024-03-08T08:06:51;14.27;;;11.70;;
16731;SDS011;8484;50.904;9.192;2024-03-08T08:09:19;13.10;;;11.70;;
16731;SDS011;8484;50.904;9.192;2024-03-08T08:11:53;13.43;;;12.03;;
16731;SDS011;8484;50.904;9.192;2024-03-08T08:14:20;13.20;;;11.47;;
16731;SDS011;8484;50.904;9.192;2024-03-08T08:16:47;12.77;;;11.37;;
16731;SDS011;8484;50.904;9.192;2024-03-08T08:19:17;16.03;;;11.70;;
16731;SDS011;8484;50.904;9.192;2024-03-08T08:21:44;13.97;;;11.37;;
16731;SDS011;8484;50.904;9.192;2024-03-08T08:24:12;12.40;;;11.10;;
16731;SDS011;8484;50.904;9.192;2024-03-08T08:26:39;12.57;;;11.13;;
16731;SDS011;8484;50.904;9.192;2024-03-08T08:29:06;14.17;;;11.67;;
16731;SDS011;8484;50.904;9.192;2024-03-08T08:31:33;14.13;;;11.37;;
16731;SDS011;8484;50.904;9.192;2024-03-08T08:34:00;12.20;;;11.00;;
16731;SDS011;8484;50.904;9.192;2024-03-08T08:36:28;18.00;;;11.77;;
16731;SDS011;8484;50.904;9.192;2024-03-08T08:38:56;13.30;;;11.20;;
16731;SDS011;8484;50.904;9.192;2024-03-08T08:41:25;14.87;;;10.90;;
16731;SDS011;8484;50.904;9.192;2024-03-08T08:43:54;12.27;;;11.03;;
16731;SDS011;8484;50.904;9.192;2024-03-08T08:46:21;12.60;;;11.13;;
16731;SDS011;8484;50.904;9.192;2024-03-08T08:48:48;13.43;;;11.30;;
16731;SDS011;8484;50.904;9.192;2024-03-08T08:54:54;11.90;;;10.60;;
16731;SDS011;8484;50.904;9.192;2024-03-08T08:58:05;13.23;;;10.60;;
16731;SDS011;8484;50.904;9.192;2024-03-08T09:01:05;11.73;;;9.30;;
16731;SDS011;8484;50.904;9.192;2024-03-08T09:06:56;12.50;;;9.60;;
16731;SDS011;8484;50.904;9.192;2024-03-08T09:09:23;10.43;;;9.33;;
16731;SDS011;8484;50.904;9.192;2024-03-08T09:11:50;11.80;;;9.70;;
16731;SDS011;8484;50.904;9.192;2024-03-08T09:14:20;10.97;;;8.83;;
16731;SDS011;8484;50.904;9.192;2024-03-08T09:16:47;9.67;;;8.10;;
16731;SDS011;8484;50.904;9.192;2024-03-08T09:19:14;9.43;;;7.53;;
16731;SDS011;8484;50.904;9.192;2024-03-08T09:21:42;10.73;;;8.40;;
16731;SDS011;8484;50.904;9.192;2024-03-08T09:24:09;9.23;;;7.60;;
16731;SDS011;8484;50.904;9.192;2024-03-08T09:26:35;8.83;;;6.90;;
16731;SDS011;8484;50.904;9.192;2024-03-08T09:29:03;7.73;;;6.30;;
16731;SDS011;8484;50.904;9.192;2024-03-08T09:31:33;10.60;;;8.37;;
16731;SDS011;8484;50.904;9.192;2024-03-08T09:34:00;10.73;;;8.23;;
16731;SDS011;8484;50.904;9.192;2024-03-08T09:36:27;8.63;;;6.33;;
16731;SDS011;8484;50.904;9.192;2024-03-08T09:38:53;10.27;;;7.40;;
16731;SDS011;8484;50.904;9.192;2024-03-08T09:41:20;13.13;;;10.23;;
16731;SDS011;8484;50.904;9.192;2024-03-08T09:43:47;10.40;;;9.10;;
16731;SDS011;8484;50.904;9.192;2024-03-08T09:46:14;11.47;;;9.37;;
16731;SDS011;8484;50.904;9.192;2024-03-08T09:48:46;9.40;;;8.13;;
16731;SDS011;8484;50.904;9.192;2024-03-08T09:51:13;9.00;;;5.90;;
16731;SDS011;8484;50.904;9.192;2024-03-08T09:53:40;7.67;;;5.03;;
16731;SDS011;8484;50.904;9.192;2024-03-08T09:56:08;9.37;;;6.70;;
16731;SDS011;8484;50.904;9.192;2024-03-08T09:58:36;11.00;;;7.97;;
16731;SDS011;8484;50.904;9.192;2024-03-08T10:01:18;9.20;;;7.17;;
16731;SDS011;8484;50.904;9.192;2024-03-08T10:03:48;6.57;;;4.80;;
16731;SDS011;8484;50.904;9.192;2024-03-08T10:06:15;6.00;;;4.13;;
16731;SDS011;8484;50.904;9.192;2024-03-08T10:08:42;7.20;;;5.43;;
16731;SDS011;8484;50.904;9.192;2024-03-08T10:11:10;7.50;;;4.77;;
16731;SDS011;8484;50.904;9.192;2024-03-08T10:13:37;8.27;;;5.87;;
16731;SDS011;8484;50.904;9.192;2024-03-08T10:16:06;8.77;;;7.10;;
16731;SDS011;8484;50.904;9.192;2024-03-08T10:18:33;8.93;;;4.80;;
16731;SDS011;8484;50.904;9.192;2024-03-08T10:21:05;6.90;;;4.57;;
16731;SDS011;8484;50.904;9.192;2024-03-08T10:23:35;6.77;;;5.20;;
16731;SDS011;8484;50.904;9.192;2024-03-08T10:26:09;9.97;;;8.03;;
16731;SDS011;8484;50.904;9.192;2024-03-08T10:28:39;8.73;;;6.47;;
16731;SDS011;8484;50.904;9.192;2024-03-08T10:31:06;6.43;;;3.70;;
16731;SDS011;8484;50.904;9.192;2024-03-08T10:33:34;7.33;;;5.33;;
16731;SDS011;8484;50.904;9.192;2024-03-08T10:39:19;10.10;;;6.70;;
16731;SDS011;8484;50.904;9.192;2024-03-08T10:48:53;10.53;;;7.57;;
16731;SDS011;8484;50.904;9.192;2024-03-08T10:51:40;7.47;;;5.87;;
16731;SDS011;8484;50.904;9.192;2024-03-08T10:54:51;7.80;;;5.47;;
16731;SDS011;8484;50.904;9.192;2024-03-08T10:57:34;5.63;;;4.43;;
16731;SDS011;8484;50.904;9.192;2024-03-08T11:00:09;8.83;;;7.37;;
16731;SDS011;8484;50.904;9.192;2024-03-08T11:02:38;6.23;;;4.60;;
16731;SDS011;8484;50.904;9.192;2024-03-08T11:05:10;8.37;;;6.33;;
16731;SDS011;8484;50.904;9.192;2024-03-08T11:07:41;10.03;;;7.57;;
16731;SDS011;8484;50.904;9.192;2024-03-08T11:10:19;8.17;;;6.43;;
16731;SDS011;8484;50.904;9.192;2024-03-08T11:12:46;10.53;;;8.63;;
16731;SDS011;8484;50.904;9.192;2024-03-08T11:15:14;9.13;;;6.87;;
16731;SDS011;8484;50.904;9.192;2024-03-08T11:17:47;6.90;;;4.53;;
16731;SDS011;8484;50.904;9.192;2024-03-08T11:20:14;12.87;;;9.67;;
16731;SDS011;8484;50.904;9.192;2024-03-08T11:22:47;10.87;;;9.03;;
16731;SDS011;8484;50.904;9.192;2024-03-08T11:25:36;10.90;;;7.63;;
16731;SDS011;8484;50.904;9.192;2024-03-08T11:28:06;7.90;;;6.23;;
16731;SDS011;8484;50.904;9.192;2024-03-08T11:30:34;11.43;;;7.87;;
16731;SDS011;8484;50.904;9.192;2024-03-08T11:33:03;10.63;;;5.57;;
16731;SDS011;8484;50.904;9.192;2024-03-08T11:35:30;8.40;;;6.93;;
16731;SDS011;8484;50.904;9.192;2024-03-08T11:37:57;8.40;;;6.67;;
16731;SDS011;8484;50.904;9.192;2024-03-08T11:40:25;7.87;;;5.20;;
16731;SDS011;8484;50.904;9.192;2024-03-08T11:43:04;11.43;;;7.30;;
16731;SDS011;8484;50.904;9.192;2024-03-08T11:49:16;10.67;;;8.00;;
16731;SDS011;8484;50.904;9.192;2024-03-08T11:51:43;7.93;;;6.20;;
16731;SDS011;8484;50.904;9.192;2024-03-08T11:54:11;8.87;;;7.97;;
16731;SDS011;8484;50.904;9.192;2024-03-08T11:56:38;6.83;;;5.97;;
16731;SDS011;8484;50.904;9.192;2024-03-08T11:59:10;10.97;;;9.23;;
16731;SDS011;8484;50.904;9.192;2024-03-08T12:01:38;9.10;;;7.23;;
16731;SDS011;8484;50.904;9.192;2024-03-08T12:04:05;10.50;;;8.03;;
16731;SDS011;8484;50.904;9.192;2024-03-08T12:06:39;7.13;;;5.37;;
16731;SDS011;8484;50.904;9.192;2024-03-08T12:09:10;8.63;;;6.87;;
16731;SDS011;8484;50.904;9.192;2024-03-08T12:11:40;12.13;;;7.87;;
16731;SDS011;8484;50.904;9.192;2024-03-08T12:14:09;9.60;;;7.50;;
16731;SDS011;8484;50.904;9.192;2024-03-08T12:16:36;7.90;;;6.93;;
16731;SDS011;8484;50.904;9.192;2024-03-08T12:19:03;10.27;;;8.30;;
16731;SDS011;8484;50.904;9.192;2024-03-08T12:21:31;8.90;;;6.60;;
16731;SDS011;8484;50.904;9.192;2024-03-08T12:24:03;7.30;;;5.63;;
16731;SDS011;8484;50.904;9.192;2024-03-08T12:26:34;8.43;;;6.80;;
16731;SDS011;8484;50.904;9.192;2024-03-08T12:29:16;10.07;;;7.23;;
16731;SDS011;8484;50.904;9.192;2024-03-08T12:31:45;9.13;;;7.97;;
16731;SDS011;8484;50.904;9.192;2024-03-08T12:34:12;6.73;;;5.03;;
16731;SDS011;8484;50.904;9.192;2024-03-08T12:36:44;6.30;;;4.73;;
16731;SDS011;8484;50.904;9.192;2024-03-08T12:39:13;5.33;;;4.27;;
16731;SDS011;8484;50.904;9.192;2024-03-08T12:41:43;7.83;;;6.50;;
16731;SDS011;8484;50.904;9.192;2024-03-08T12:44:11;9.83;;;7.03;;
16731;SDS011;8484;50.904;9.192;2024-03-08T12:46:40;10.93;;;5.67;;
16731;SDS011;8484;50.904;9.192;2024-03-08T12:49:10;7.00;;;5.80;;
16731;SDS011;8484;50.904;9.192;2024-03-08T12:51:37;8.73;;;7.83;;
16731;SDS011;8484;50.904;9.192;2024-03-08T12:54:04;9.37;;;7.90;;
16731;SDS011;8484;50.904;9.192;2024-03-08T12:56:32;7.67;;;6.93;;
16731;SDS011;8484;50.904;9.192;2024-03-08T12:59:02;8.57;;;6.93;;
16731;SDS011;8484;50.904;9.192;2024-03-08T13:01:30;9.23;;;6.57;;
16731;SDS011;8484;50.904;9.192;2024-03-08T13:03:59;4.20;;;3.80;;
16731;SDS011;8484;50.904;9.192;2024-03-08T13:06:26;8.47;;;6.30;;
16731;SDS011;8484;50.904;9.192;2024-03-08T13:08:54;7.90;;;6.70;;
16731;SDS011;8484;50.904;9.192;2024-03-08T13:11:21;10.37;;;8.13;;
16731;SDS011;8484;50.904;9.192;2024-03-08T13:13:49;8.37;;;6.90;;
16731;SDS011;8484;50.904;9.192;2024-03-08T13:16:16;8.47;;;6.80;;
16731;SDS011;8484;50.904;9.192;2024-03-08T13:18:44;6.67;;;5.47;;
16731;SDS011;8484;50.904;9.192;2024-03-08T13:21:15;7.00;;;6.00;;
16731;SDS011;8484;50.904;9.192;2024-03-08T13:23:45;8.23;;;6.77;;
16731;SDS011;8484;50.904;9.192;2024-03-08T13:26:14;5.63;;;4.70;;
16731;SDS011;8484;50.904;9.192;2024-03-08T13:28:42;6.13;;;4.77;;
16731;SDS011;8484;50.904;9.192;2024-03-08T13:31:10;6.27;;;5.07;;
16731;SDS011;8484;50.904;9.192;2024-03-08T13:33:37;5.67;;;4.93;;
16731;SDS011;8484;50.904;9.192;2024-03-08T13:36:06;8.90;;;5.73;;
16731;SDS011;8484;50.904;9.192;2024-03-08T13:38:41;7.23;;;5.50;;
16731;SDS011;8484;50.904;9.192;2024-03-08T13:41:09;7.27;;;5.47;;
16731;SDS011;8484;50.904;9.192;2024-03-08T13:43:39;10.30;;;6.47;;
16731;SDS011;8484;50.904;9.192;2024-03-08T13:46:07;7.17;;;5.83;;
16731;SDS011;8484;50.904;9.192;2024-03-08T13:48:35;6.17;;;5.23;;
16731;SDS011;8484;50.904;9.192;2024-03-08T13:51:03;11.03;;;7.23;;
16731;SDS011;8484;50.904;9.192;2024-03-08T13:53:31;7.53;;;5.47;;
16731;SDS011;8484;50.904;9.192;2024-03-08T13:56:01;8.73;;;6.20;;
16731;SDS011;8484;50.904;9.192;2024-03-08T13:58:28;6.33;;;5.10;;
16731;SDS011;8484;50.904;9.192;2024-03-08T14:00:55;5.83;;;4.20;;
16731;SDS011;8484;50.904;9.192;2024-03-08T14:03:23;8.70;;;6.10;;
16731;SDS011;8484;50.904;9.192;2024-03-08T14:05:53;6.30;;;5.30;;
16731;SDS011;8484;50.904;9.192;2024-03-08T14:08:42;6.80;;;4.50;;
16731;SDS011;8484;50.904;9.192;2024-03-08T14:11:25;7.27;;;4.47;;
16731;SDS011;8484;50.904;9.192;2024-03-08T14:13:58;5.13;;;3.80;;
16731;SDS011;8484;50.904;9.192;2024-03-08T14:16:25;4.10;;;3.27;;
16731;SDS011;8484;50.904;9.192;2024-03-08T14:18:52;5.23;;;3.83;;
16731;SDS011;8484;50.904;9.192;2024-03-08T14:21:19;7.23;;;5.00;;
16731;SDS011;8484;50.904;9.192;2024-03-08T14:23:47;5.80;;;4.67;;
16731;SDS011;8484;50.904;9.192;2024-03-08T14:26:14;4.50;;;3.77;;
16731;SDS011;8484;50.904;9.192;2024-03-08T14:28:42;4.23;;;3.60;;
16731;SDS011;8484;50.904;9.192;2024-03-08T14:31:10;6.10;;;4.63;;
16731;SDS011;8484;50.904;9.192;2024-03-08T14:33:37;8.67;;;5.83;;
16731;SDS011;8484;50.904;9.192;2024-03-08T14:36:04;6.50;;;4.50;;
16731;SDS011;8484;50.904;9.192;2024-03-08T14:38:32;8.33;;;6.17;;
16731;SDS011;8484;50.904;9.192;2024-03-08T14:40:59;7.23;;;5.37;;
16731;SDS011;8484;50.904;9.192;2024-03-08T14:43:28;5.00;;;3.77;;
16731;SDS011;8484;50.904;9.192;2024-03-08T14:45:57;7.67;;;5.83;;
16731;SDS011;8484;50.904;9.192;2024-03-08T14:48:24;5.17;;;4.13;;
16731;SDS011;8484;50.904;9.192;2024-03-08T14:50:50;7.47;;;5.90;;
16731;SDS011;8484;50.904;9.192;2024-03-08T14:53:17;6.37;;;5.23;;
16731;SDS011;8484;50.904;9.192;2024-03-08T14:55:44;8.47;;;6.13;;
16731;SDS011;8484;50.904;9.192;2024-03-08T14:58:12;5.40;;;4.17;;
16731;SDS011;8484;50.904;9.192;2024-03-08T15:00:39;7.33;;;5.30;;
16731;SDS011;8484;50.904;9.192;2024-03-08T15:03:08;10.47;;;8.50;;
16731;SDS011;8484;50.904;9.192;2024-03-08T15:05:38;7.63;;;6.47;;
16731;SDS011;8484;50.904;9.192;2024-03-08T15:08:07;9.60;;;7.77;;
16731;SDS011;8484;50.904;9.192;2024-03-08T15:10:44;10.43;;;8.30;;
16731;SDS011;8484;50.904;9.192;2024-03-08T15:13:11;10.77;;;7.77;;
16731;SDS011;8484;50.904;9.192;2024-03-08T15:15:46;12.73;;;8.13;;
16731;SDS011;8484;50.904;9.192;2024-03-08T15:18:21;10.43;;;7.23;;